Aérodrome :
LOGIN :

S'inscrire | Disclaimer

   EN    FR    IT 

 










Légende :    VFR   VFR Marginal   IFR   IFR Intensif   IFR Très Intensif
Visi : 
Plafond : 
>= 8 km
>= 3000ft
5 à 8 km
1000 à 3000 ft
1500m à 5 km
500 à 1000 ft
800 à 1500m
200 à 500 ft
< 800m
< 200 ft
Symboles :   Orages  Brouillard  Fortes neiges  Fortes précipitations  Vent > 20 kt
SIGMETs :   Divers  Orages  Givrage  Turbulence  Onde Orograph.  Cendres Volcan.







- Altitude de l'aérodrome : 194 ft
- Code IATA : ANE
- Voir les cartes d'approche


LFJR - Angers Marcé

DERNIER METAR :
  • 260700Z AUTO 07003KT 9000 NSC 07/05 Q1017 NOSIG

METARs EXPIRÉS :
  • 260630Z AUTO 07002KT CAVOK 06/05 Q1017 NOSIG
  • 260600Z AUTO 07003KT CAVOK 05/03 Q1017 NOSIG
  • 260530Z AUTO 05003KT CAVOK 06/04 Q1016 NOSIG
  • 260500Z AUTO 09003KT CAVOK 06/04 Q1016
  • 260430Z AUTO 11003KT CAVOK 07/04 Q1016

TAF TAF LFJR
Valide du 26 à 06h jusqu'au 26 à 15h UTC


260500Z 2606/2615 10004KT CAVOK
Pas de NOTAMs connus pour ce terrain.
1 SIGMET publié pour la FIR Brest (LFRR) :
 
Turbulence forte
LFRR SIGMET 1 VALID 260600/261000 LFPW
LFRR BREST FIR/UIR SEV TURB FCST WI N4600 W00130 - N4500 W00145 - N4530 W00545 - N4645 W00500 FL160/270 MOV NE 10KT INTSF=



MET'MAP, la Météo Aéronautique d'un coup d'oeil ! - Copyright ORBIFLY Décembre 2007 - Disclaimer

ORBIFLY MET'MAP TEAM :

Programmation & Développement : Alexandra Zaïnal
Conception & Développement : Baudouin d'Aumeries
Co-Programmation & Développement : Marc-Olivier Méhu
Soutien technique & logistique : Manuel Goepfert

Contact : metmap@orbifly.com




SOURCES & CREDITS :

   NOAA